Amelia, OH (45102)

6:17 PM EDT on April 25, 2015 (GMT -0400)
Scyamore Creek | | Change Station
CLOSE
Current Station
Personal Weather Station
Location: Amelia, OH
Elevation: 879 ft
Nearby Weather Stations

Elev 879 ft 39.05 °N, 84.23 °W | Updated 6 minutes ago

Rain
Rain
43.9 °F
Feels Like 40 °F
N
6.3
Wind Variable Wind from WNW

Today
High -- | Low -- °F
--% Chance of Precip.
Yesterday
High -- | Low -- °F
Precip. -- in
6:46 AM 8:23 PM
Waxing Crescent, 49% visible
Pressure 29.67 in
Visibility 10.0 miles
Clouds Overcast 1100 ft
Windchill 40 °F
Dew Point 44 °F
Humidity 99%
Rainfall 0.51 in
Snow Depth Not available.
UV 1 out of 12
Pollen 5.30 out of 12
Air Quality Not available.
Flu Activity Regional
SPECI KLUK 252200Z 05009KT 10SM -RA OVC011 07/06 A2967 RMK AO2 P0000 T00720061

More Conditions Fewer Conditions

Pressure 29.67 in
Visibility 10.0 miles
Clouds Overcast 1100 ft
Windchill 40 °F
Dew Point 44 °F
Humidity 99%
Rainfall 0.51 in
Snow Depth Not available.
UV 1 out of 12
Pollen 5.30 out of 12
Air Quality Not available.
Flu Activity Regional
SPECI KLUK 252200Z 05009KT 10SM -RA OVC011 07/06 A2967 RMK AO2 P0000 T00720061

More Conditions Fewer Conditions

10-Day Weather Forecast

Almanac

Astronomy

Apr. 25, 2015 Rise Set
Actual Time
Civil Twilight
Nautical Twilight
Astronomical Twilight
Moon
Length of Visible Light
Length of Day
Tomorrow will be .
, % of the Moon is Illuminated

Today's Extremes

State Highs State Lows

Community

WunderPhotos

Upload Photos

1,816,827 photos uploaded!

WunderBlogs® & News

Nearby

Air Quality

  Air Quality AQ Index Pollutant
Not available.

Snow Depth

Station Depth Elevation

Earthquake Activity

City Distance Mag. Time & Date
Minimum magnitude displayed is 2.5.

Coastal Water Temperatures

Place Temperature

Stations

Nearby Weather Stations

Station Location Temp. Windchill Dew Point Humidity Wind Precip. Elev Updated Type